createdAt,value
2023-04-15T00:01:06.237Z,0.90
2023-04-15T00:03:35.029Z,0.77
2023-04-15T00:06:02.603Z,0.80
2023-04-15T00:08:30.457Z,0.93
2023-04-15T00:10:59.677Z,0.20
2023-04-15T00:13:26.646Z,0.70
2023-04-15T00:15:53.604Z,1.02
2023-04-15T00:18:20.593Z,1.15
2023-04-15T00:20:48.095Z,0.60
2023-04-15T00:23:15.079Z,0.60
2023-04-15T00:25:42.105Z,1.15
2023-04-15T00:28:09.670Z,1.90
2023-04-15T00:30:36.719Z,1.37
2023-04-15T00:33:04.067Z,2.15
2023-04-15T00:35:34.615Z,2.95
2023-04-15T00:38:01.663Z,2.10
2023-04-15T00:40:28.597Z,1.27
2023-04-15T00:42:55.618Z,3.20
2023-04-15T00:45:22.701Z,1.75
2023-04-15T00:47:51.579Z,2.97
2023-04-15T00:50:18.688Z,3.33
2023-04-15T00:52:45.913Z,1.85
2023-04-15T00:55:13.136Z,2.12
2023-04-15T00:57:41.250Z,4.70
2023-04-15T01:00:09.665Z,2.47
2023-04-15T01:02:37.107Z,2.45
2023-04-15T01:05:05.030Z,2.53
2023-04-15T01:07:32.626Z,3.35
2023-04-15T01:10:00.090Z,2.90
2023-04-15T01:12:28.355Z,2.37
2023-04-15T01:14:56.938Z,2.33
2023-04-15T01:17:25.463Z,2.67
2023-04-15T01:19:53.174Z,2.40
2023-04-15T01:22:20.166Z,3.70
2023-04-15T01:25:18.596Z,3.28
2023-04-15T01:27:45.826Z,4.35
2023-04-15T01:30:12.914Z,3.65
2023-04-15T01:32:39.940Z,3.28
2023-04-15T01:35:07.957Z,2.62
2023-04-15T01:37:35.125Z,3.45
2023-04-15T01:40:02.313Z,3.12
2023-04-15T01:42:29.438Z,3.28
2023-04-15T01:44:56.589Z,2.92
2023-04-15T01:47:23.644Z,4.28
2023-04-15T01:49:50.668Z,3.78
2023-04-15T01:52:17.734Z,3.72
2023-04-15T01:54:44.783Z,4.03
2023-04-15T01:57:11.871Z,3.53
2023-04-15T01:59:38.885Z,3.97
2023-04-15T02:02:05.905Z,4.12
2023-04-15T02:04:32.993Z,4.50
2023-04-15T02:07:00.180Z,3.85
2023-04-15T02:09:27.246Z,3.37
2023-04-15T02:11:54.515Z,4.60
2023-04-15T02:14:21.733Z,3.22
2023-04-15T02:16:48.910Z,3.55
2023-04-15T02:19:15.916Z,3.87
2023-04-15T02:21:42.985Z,3.80
2023-04-15T02:24:10.038Z,4.60
2023-04-15T02:26:37.069Z,3.60
2023-04-15T02:29:04.389Z,3.97
2023-04-15T02:31:34.304Z,4.55
2023-04-15T02:34:03.285Z,3.20
2023-04-15T02:36:32.008Z,4.55
2023-04-15T02:38:59.313Z,5.22
2023-04-15T02:41:28.771Z,3.37
2023-04-15T02:43:56.121Z,3.53
2023-04-15T02:46:23.436Z,3.42
2023-04-15T02:48:50.929Z,3.72
2023-04-15T02:51:20.953Z,3.55
2023-04-15T02:53:49.221Z,3.37
2023-04-15T02:56:17.535Z,3.65
2023-04-15T02:58:45.956Z,4.65
2023-04-15T03:01:13.076Z,5.43
2023-04-15T03:03:40.198Z,4.82
2023-04-15T03:06:07.173Z,3.25
2023-04-15T03:08:34.174Z,3.83
2023-04-15T03:11:02.928Z,3.70
2023-04-15T03:13:29.937Z,4.30
2023-04-15T03:15:57.030Z,2.78
2023-04-15T03:18:24.030Z,3.85
2023-04-15T03:20:51.097Z,4.32
2023-04-15T03:23:18.083Z,2.37
2023-04-15T03:25:45.634Z,3.97
2023-04-15T03:28:12.864Z,4.43
2023-04-15T03:30:39.956Z,3.35
2023-04-15T03:33:07.242Z,2.95
2023-04-15T03:35:34.682Z,3.72
2023-04-15T03:38:01.704Z,4.35
2023-04-15T03:40:28.706Z,3.00
2023-04-15T03:42:56.011Z,3.22
2023-04-15T03:45:22.952Z,4.12
2023-04-15T03:47:50.152Z,4.30
2023-04-15T03:50:17.272Z,2.90
2023-04-15T03:52:45.092Z,3.10
2023-04-15T03:55:12.199Z,3.90
2023-04-15T03:57:39.976Z,4.18
2023-04-15T04:00:09.528Z,3.15
2023-04-15T04:02:37.020Z,6.12
2023-04-15T04:05:04.693Z,5.00
2023-04-15T04:07:32.612Z,2.95
2023-04-15T04:09:59.633Z,3.50
2023-04-15T04:12:26.628Z,3.97
2023-04-15T05:08:47.330Z,4.60
2023-04-15T05:11:14.308Z,3.80
2023-04-15T05:13:41.447Z,3.22
2023-04-15T05:16:08.696Z,3.53
2023-04-15T05:18:35.901Z,5.68
2023-04-15T05:21:03.373Z,6.07
2023-04-15T05:23:30.524Z,3.17
2023-04-15T05:25:57.561Z,3.83
2023-04-15T05:28:24.481Z,5.12
2023-04-15T05:30:51.626Z,4.68
2023-04-15T05:33:19.384Z,4.75
2023-04-15T05:35:46.591Z,3.25
2023-04-15T05:38:13.566Z,3.92
2023-04-15T05:40:40.935Z,3.70
2023-04-15T05:43:08.066Z,3.85
2023-04-15T05:45:35.015Z,3.78
2023-04-15T05:48:02.154Z,3.15
2023-04-15T05:50:29.258Z,4.62
2023-04-15T05:52:56.389Z,3.70
2023-04-15T05:55:23.418Z,3.37
2023-04-15T05:57:50.443Z,2.67
2023-04-15T06:00:17.606Z,4.75
2023-04-15T06:02:44.970Z,3.55
2023-04-15T06:05:12.295Z,3.50
2023-04-15T06:07:39.460Z,3.45
2023-04-15T06:10:07.640Z,3.12
2023-04-15T06:12:34.716Z,2.50
2023-04-15T06:15:01.899Z,3.45
2023-04-15T06:17:28.932Z,4.65
2023-04-15T06:19:56.417Z,3.62
2023-04-15T06:22:24.151Z,3.78
2023-04-15T06:24:51.916Z,4.75
2023-04-15T06:27:19.413Z,2.55
2023-04-15T06:29:46.565Z,3.12
2023-04-15T06:32:13.668Z,3.60
2023-04-15T06:34:40.979Z,4.20
2023-04-15T06:37:08.173Z,4.15
2023-04-15T06:39:35.276Z,4.43
2023-04-15T06:42:03.676Z,3.53
2023-04-15T06:44:33.271Z,4.07
2023-04-15T06:47:00.895Z,2.92
2023-04-15T06:49:28.323Z,3.62
2023-04-15T06:51:55.327Z,3.60
2023-04-15T06:54:22.762Z,2.65
2023-04-15T06:56:50.255Z,2.10
2023-04-15T06:59:17.426Z,2.95
2023-04-15T07:01:44.394Z,2.10
2023-04-15T07:04:12.609Z,3.28
2023-04-15T07:06:39.924Z,3.95
2023-04-15T07:09:06.867Z,2.47
2023-04-15T07:11:34.158Z,2.03
2023-04-15T07:14:01.163Z,4.85
2023-04-15T07:16:29.766Z,2.87
2023-04-15T07:18:57.510Z,2.50
2023-04-15T07:21:25.462Z,3.08
2023-04-15T07:23:52.714Z,3.65
2023-04-15T07:26:19.708Z,3.00
2023-04-15T07:28:47.750Z,4.70
2023-04-15T07:31:15.285Z,1.80
2023-04-15T07:33:42.360Z,1.87
2023-04-15T07:36:09.752Z,2.10
2023-04-15T07:38:36.754Z,3.58
2023-04-15T07:41:04.441Z,2.92
2023-04-15T07:43:31.462Z,2.40
2023-04-15T07:45:58.516Z,2.10
2023-04-15T07:48:25.999Z,1.87
2023-04-15T07:50:53.111Z,1.90
2023-04-15T07:53:20.653Z,2.75
2023-04-15T07:55:47.626Z,1.95
2023-04-15T07:58:14.597Z,1.92
2023-04-15T08:00:41.884Z,3.70
2023-04-15T08:03:08.959Z,2.40
2023-04-15T08:05:36.111Z,1.83
2023-04-15T08:08:03.256Z,2.20
2023-04-15T08:10:30.954Z,1.55
2023-04-15T08:12:57.998Z,2.78
2023-04-15T08:15:26.147Z,1.92
2023-04-15T08:17:53.274Z,3.05
2023-04-15T08:20:20.920Z,4.80
2023-04-15T08:22:52.258Z,2.28
2023-04-15T08:25:20.317Z,4.47
2023-04-15T08:27:47.617Z,3.42
2023-04-15T08:30:14.891Z,3.70
2023-04-15T08:32:51.518Z,2.42
2023-04-15T08:35:18.580Z,3.95
2023-04-15T08:37:45.551Z,2.62
2023-04-15T08:40:13.091Z,3.10
2023-04-15T08:42:49.341Z,2.53
2023-04-15T08:45:18.432Z,2.10
2023-04-15T08:47:48.076Z,2.37
2023-04-15T08:52:42.913Z,5.45
2023-04-15T08:55:11.990Z,2.20
2023-04-15T08:57:40.138Z,3.55
2023-04-15T09:00:07.817Z,3.72
2023-04-15T09:02:34.978Z,5.35
2023-04-15T09:05:05.225Z,2.47
2023-04-15T09:07:35.040Z,1.73
2023-04-15T09:12:29.022Z,2.08
2023-04-15T09:14:56.094Z,2.22
2023-04-15T09:17:23.151Z,1.87
2023-04-15T09:19:50.239Z,2.28
2023-04-15T09:22:17.566Z,1.92
2023-04-15T09:24:44.572Z,4.82
2023-04-15T09:27:11.701Z,4.60
2023-04-15T09:29:38.709Z,2.55
2023-04-15T09:32:17.254Z,3.65
2023-04-15T09:34:44.799Z,2.97
2023-04-15T09:37:24.553Z,2.30
2023-04-15T09:39:58.563Z,1.25
2023-04-15T09:42:27.082Z,1.90
2023-04-15T09:44:54.329Z,2.28
2023-04-15T09:47:31.811Z,2.65
2023-04-15T09:50:00.139Z,2.78
2023-04-15T09:52:27.623Z,2.45
2023-04-15T09:54:56.938Z,3.00
2023-04-15T09:57:26.739Z,3.10
2023-04-15T10:02:24.545Z,1.42
2023-04-15T10:04:52.935Z,2.40
2023-04-15T10:07:22.598Z,3.42
2023-04-15T10:12:18.910Z,3.10
2023-04-15T10:14:53.124Z,1.70
2023-04-15T10:17:23.857Z,1.80
2023-04-15T10:19:54.787Z,3.67
2023-04-15T10:22:23.568Z,2.67
2023-04-15T10:24:51.869Z,2.78
2023-04-15T10:27:19.625Z,2.47
2023-04-15T10:29:48.157Z,5.40
2023-04-15T10:32:16.338Z,3.58
2023-04-15T10:34:43.933Z,2.12
2023-04-15T10:37:13.497Z,2.47
2023-04-15T10:39:43.460Z,3.60
2023-04-15T10:42:15.801Z,2.90
2023-04-15T10:44:45.618Z,2.75
2023-04-15T10:47:21.806Z,2.08
2023-04-15T10:49:53.393Z,2.37
2023-04-15T10:52:26.124Z,2.10
2023-04-15T10:55:04.756Z,2.40
2023-04-15T10:57:38.017Z,2.00
2023-04-15T11:00:13.171Z,2.42
2023-04-15T11:02:42.617Z,1.95
2023-04-15T11:05:12.964Z,2.50
2023-04-15T11:07:47.345Z,2.12
2023-04-15T11:10:34.149Z,2.12
2023-04-15T11:13:15.054Z,5.97
2023-04-15T11:15:47.254Z,2.87
2023-04-15T11:18:22.414Z,2.15
2023-04-15T11:21:09.688Z,2.55
2023-04-15T11:23:41.452Z,3.45
2023-04-15T11:26:10.429Z,2.55
2023-04-15T11:28:39.221Z,2.00
2023-04-15T11:31:11.614Z,2.28
2023-04-15T11:33:46.104Z,1.37
2023-04-15T11:36:13.152Z,3.45
2023-04-15T11:38:43.905Z,3.15
2023-04-15T11:41:11.708Z,1.60
2023-04-15T11:43:38.637Z,1.60
2023-04-15T11:46:05.966Z,3.40
2023-04-15T11:48:35.205Z,3.55
2023-04-15T11:51:05.057Z,2.75
2023-04-15T11:53:49.732Z,3.70
2023-04-15T11:56:23.662Z,2.00
2023-04-15T11:58:57.318Z,2.53
2023-04-15T12:01:39.654Z,1.23
2023-04-15T12:04:14.375Z,2.40
2023-04-15T12:06:41.901Z,1.75
2023-04-15T12:09:17.023Z,1.10
2023-04-15T12:11:50.150Z,0.75
2023-04-15T12:14:28.670Z,0.60
2023-04-15T12:17:01.665Z,1.23
2023-04-15T12:19:37.473Z,0.95
2023-04-15T12:22:06.851Z,1.20
2023-04-15T12:24:35.091Z,0.50
2023-04-15T12:27:05.065Z,0.57
2023-04-15T12:29:33.136Z,0.65
2023-04-15T12:32:06.738Z,0.57
2023-04-15T12:34:36.150Z,0.70
2023-04-15T12:37:05.428Z,2.12
2023-04-15T12:39:36.213Z,2.30
2023-04-15T12:42:04.677Z,0.95
2023-04-15T12:44:33.510Z,1.15
2023-04-15T12:47:00.619Z,0.32
2023-04-15T12:49:28.279Z,0.55
2023-04-15T12:52:02.323Z,0.50
2023-04-15T12:54:30.569Z,0.60
2023-04-15T12:56:58.606Z,0.45
2023-04-15T12:59:26.083Z,0.62
2023-04-15T13:01:54.330Z,0.20
2023-04-15T13:04:22.406Z,0.55
2023-04-15T13:06:49.808Z,0.57
2023-04-15T13:09:17.019Z,1.58
2023-04-15T13:11:44.487Z,0.65
2023-04-15T13:14:13.368Z,0.75
2023-04-15T13:16:40.557Z,0.82
2023-04-15T13:19:07.954Z,1.15
2023-04-15T13:21:36.232Z,0.50
2023-04-15T13:24:05.110Z,1.02
2023-04-15T13:26:32.426Z,0.80
2023-04-15T13:29:00.105Z,1.40
2023-04-15T13:31:27.461Z,0.73
2023-04-15T13:33:54.618Z,2.50
2023-04-15T13:36:21.756Z,1.00
2023-04-15T13:38:51.249Z,2.30
2023-04-15T13:43:45.986Z,2.37
2023-04-15T13:46:13.149Z,4.78
2023-04-15T13:48:40.511Z,1.52
2023-04-15T13:51:07.525Z,1.10
2023-04-15T13:53:38.556Z,1.00
2023-04-15T13:56:10.601Z,0.70
2023-04-15T13:58:38.546Z,0.32
2023-04-15T14:01:07.306Z,1.40
2023-04-15T14:03:38.324Z,1.10
2023-04-15T14:06:06.430Z,0.90
2023-04-15T14:08:34.210Z,2.37
2023-04-15T14:11:01.630Z,2.78
2023-04-15T14:13:28.668Z,1.17
2023-04-15T14:15:57.171Z,2.58
2023-04-15T14:18:24.361Z,1.77
2023-04-15T14:20:51.432Z,1.75
2023-04-15T14:23:18.372Z,1.40
2023-04-15T14:25:47.948Z,1.33
2023-04-15T14:28:16.067Z,1.52
2023-04-15T14:30:43.250Z,0.80
2023-04-15T14:33:10.306Z,1.70
2023-04-15T14:35:38.220Z,1.17
2023-04-15T14:38:06.390Z,1.02
2023-04-15T14:40:34.305Z,1.77
2023-04-15T14:43:01.242Z,1.00
2023-04-15T14:45:28.325Z,0.85
2023-04-15T14:47:55.547Z,3.05
2023-04-15T14:50:22.748Z,1.00
2023-04-15T14:52:49.752Z,1.52
2023-04-15T14:55:16.724Z,1.50
2023-04-15T14:57:43.731Z,1.62
2023-04-15T15:00:13.858Z,1.27
2023-04-15T15:02:42.635Z,2.33
2023-04-15T15:05:11.057Z,1.27
2023-04-15T15:07:39.652Z,1.35
2023-04-15T15:10:07.724Z,0.85
2023-04-15T15:12:34.889Z,1.12
2023-04-15T15:15:12.371Z,1.73
2023-04-15T15:17:46.756Z,1.30
2023-04-15T15:20:13.874Z,0.95
2023-04-15T15:22:40.930Z,1.37
2023-04-15T15:25:08.077Z,2.70
2023-04-15T15:27:37.079Z,1.62
2023-04-15T15:30:07.048Z,1.00
2023-04-15T15:32:34.162Z,0.67
2023-04-15T15:35:01.186Z,2.50
2023-04-15T15:37:28.149Z,1.70
2023-04-15T15:39:55.250Z,1.80
2023-04-15T15:42:26.019Z,1.05
2023-04-15T15:44:55.730Z,1.75
2023-04-15T15:49:49.739Z,1.50
2023-04-15T15:52:16.772Z,1.77
2023-04-15T15:54:43.704Z,1.27
2023-04-15T15:57:11.450Z,1.67
2023-04-15T15:59:44.157Z,1.80
2023-04-15T16:02:12.460Z,3.12
2023-04-15T16:04:39.765Z,3.05
2023-04-15T16:07:07.339Z,1.83
2023-04-15T16:09:34.761Z,1.23
2023-04-15T16:12:02.431Z,2.22
2023-04-15T16:14:29.461Z,2.55
2023-04-15T16:16:56.706Z,0.88
2023-04-15T16:19:23.793Z,1.00
2023-04-15T16:21:51.373Z,1.30
2023-04-15T16:24:18.362Z,2.20
2023-04-15T16:26:45.388Z,1.58
2023-04-15T16:29:12.423Z,1.95
2023-04-15T16:31:40.375Z,2.97
2023-04-15T16:34:07.410Z,2.97
2023-04-15T16:36:36.230Z,3.55
2023-04-15T16:39:03.512Z,2.22
2023-04-15T16:41:32.608Z,4.28
2023-04-15T16:44:02.213Z,2.28
2023-04-15T16:46:30.005Z,3.17
2023-04-15T16:48:57.213Z,2.72
2023-04-15T16:51:24.384Z,3.37
2023-04-15T16:53:51.529Z,2.22
2023-04-15T16:56:19.965Z,2.55
2023-04-15T16:58:47.113Z,2.28
2023-04-15T17:01:14.252Z,2.58
2023-04-15T17:03:41.505Z,2.12
2023-04-15T17:06:08.697Z,3.15
2023-04-15T17:08:35.790Z,4.18
2023-04-15T17:11:02.845Z,2.33
2023-04-15T17:13:30.067Z,2.67
2023-04-15T17:15:57.102Z,2.72
2023-04-15T17:18:24.227Z,3.58
2023-04-15T17:20:51.410Z,1.50
2023-04-15T17:23:18.389Z,5.25
2023-04-15T17:25:45.560Z,1.75
2023-04-15T17:28:12.685Z,1.58
2023-04-15T17:30:40.070Z,3.05
2023-04-15T17:33:53.481Z,4.37
2023-04-15T17:35:54.304Z,3.20
2023-04-15T17:38:21.461Z,2.17
2023-04-15T17:40:48.497Z,2.28
2023-04-15T17:43:15.735Z,2.72
2023-04-15T17:45:43.572Z,4.28
2023-04-15T17:48:10.727Z,2.22
2023-04-15T17:50:38.848Z,3.03
2023-04-15T17:53:05.998Z,5.62
2023-04-15T17:55:33.392Z,1.55
2023-04-15T17:58:01.122Z,2.05
2023-04-15T18:00:28.162Z,8.68
2023-04-15T18:02:55.435Z,3.47
2023-04-15T18:05:22.727Z,2.92
2023-04-15T18:07:52.555Z,1.40
2023-04-15T18:12:48.358Z,2.50
2023-04-15T18:15:15.551Z,3.03
2023-04-15T18:17:42.925Z,3.17
2023-04-15T18:20:10.318Z,9.68
2023-04-15T18:22:37.334Z,8.95
2023-04-15T18:25:04.880Z,6.95
2023-04-15T18:27:35.728Z,18.65
2023-04-15T18:30:02.776Z,41.45
2023-04-15T18:32:33.012Z,35.50
2023-04-15T18:35:00.193Z,45.45
2023-04-15T18:37:29.582Z,23.85
2023-04-15T18:39:57.020Z,13.43
2023-04-15T18:42:24.819Z,13.70
2023-04-15T18:44:53.495Z,16.55
2023-04-15T18:47:20.898Z,17.10
2023-04-15T18:49:47.961Z,66.53
2023-04-15T18:52:14.924Z,39.35
2023-04-15T18:54:41.930Z,23.35
2023-04-15T18:57:09.157Z,24.10
2023-04-15T18:59:36.540Z,23.85
2023-04-15T19:02:06.683Z,23.02
2023-04-15T19:04:34.164Z,28.33
2023-04-15T19:07:02.291Z,34.55
2023-04-15T19:09:29.571Z,23.50
2023-04-15T19:11:57.184Z,20.70
2023-04-15T19:14:24.626Z,23.95
2023-04-15T19:16:51.896Z,42.00
2023-04-15T19:19:19.450Z,35.88
2023-04-15T19:21:50.419Z,26.02
2023-04-15T19:24:18.425Z,19.50
2023-04-15T19:26:48.517Z,24.52
2023-04-15T19:29:18.067Z,26.62
2023-04-15T19:31:45.392Z,12.37
2023-04-15T19:34:12.453Z,6.32
2023-04-15T19:36:39.541Z,5.50
2023-04-15T19:39:06.883Z,5.45
2023-04-15T19:41:34.080Z,9.30
2023-04-15T19:44:01.190Z,8.85
2023-04-15T19:46:28.282Z,8.95
2023-04-15T19:48:55.859Z,7.15
2023-04-15T19:51:22.913Z,12.32
2023-04-15T19:53:51.204Z,17.05
2023-04-15T19:56:18.259Z,15.98
2023-04-15T19:58:47.131Z,12.50
2023-04-15T20:01:14.199Z,13.88
2023-04-15T20:03:41.298Z,10.05
2023-04-15T20:06:08.486Z,9.90
2023-04-15T20:08:35.573Z,7.95
2023-04-15T20:11:02.660Z,5.57
2023-04-15T20:13:29.688Z,10.95
2023-04-15T20:15:56.772Z,12.52
2023-04-15T20:18:23.802Z,11.15
2023-04-15T20:20:51.076Z,7.30
2023-04-15T20:23:18.045Z,8.63
2023-04-15T20:25:45.335Z,7.78
2023-04-15T20:28:12.568Z,12.68
2023-04-15T20:30:39.887Z,11.23
2023-04-15T20:33:08.294Z,8.52
2023-04-15T20:35:35.394Z,7.85
2023-04-15T20:38:06.013Z,5.28
2023-04-15T20:40:35.654Z,6.12
2023-04-15T20:43:02.653Z,8.55
2023-04-15T20:45:29.738Z,8.77
2023-04-15T20:47:56.830Z,11.35
2023-04-15T20:50:23.849Z,8.10
2023-04-15T20:52:50.812Z,8.40
2023-04-15T20:55:17.920Z,6.75
2023-04-15T20:57:44.902Z,7.15
2023-04-15T21:00:12.481Z,7.10
2023-04-15T21:02:39.669Z,6.45
2023-04-15T21:05:06.955Z,6.30
2023-04-15T21:07:33.977Z,19.52
2023-04-15T21:10:00.978Z,23.35
2023-04-15T21:12:27.933Z,32.90
2023-04-15T21:14:55.003Z,20.17
2023-04-15T21:17:22.081Z,15.70
2023-04-15T21:19:49.231Z,21.85
2023-04-15T21:22:16.370Z,24.70
2023-04-15T21:24:43.390Z,19.95
2023-04-15T21:27:10.427Z,19.67
2023-04-15T21:29:40.476Z,15.95
2023-04-15T21:32:07.671Z,12.52
2023-04-15T21:34:35.030Z,11.55
2023-04-15T21:37:02.326Z,7.45
2023-04-15T21:39:29.321Z,8.88
2023-04-15T21:41:58.101Z,11.18
2023-04-15T21:44:25.378Z,11.52
2023-04-15T21:46:52.431Z,10.68
2023-04-15T21:49:20.674Z,11.77
2023-04-15T21:51:48.274Z,10.63
2023-04-15T21:54:15.381Z,9.27
2023-04-15T21:56:43.414Z,11.98
2023-04-15T21:59:10.647Z,8.35
2023-04-15T22:01:37.765Z,8.38
2023-04-15T22:04:06.221Z,9.63
2023-04-15T22:06:33.350Z,8.55
2023-04-15T22:09:00.436Z,9.07
2023-04-15T22:11:28.517Z,9.85
2023-04-15T22:13:57.566Z,10.80
2023-04-15T22:16:28.896Z,9.52
2023-04-15T22:18:56.224Z,13.62
2023-04-15T22:21:23.818Z,11.73
2023-04-15T22:23:51.644Z,10.35
2023-04-15T22:26:18.642Z,9.52
2023-04-15T22:28:45.952Z,10.85
2023-04-15T22:31:13.898Z,9.20
2023-04-15T22:33:40.947Z,10.68
2023-04-15T22:36:08.058Z,8.30
2023-04-15T22:38:35.116Z,14.27
2023-04-15T22:41:02.151Z,7.93
2023-04-15T22:43:29.122Z,10.20
2023-04-15T22:45:56.950Z,7.82
2023-04-15T22:48:24.130Z,8.15
2023-04-15T22:50:51.257Z,9.70
2023-04-15T22:53:18.657Z,5.78
2023-04-15T22:55:47.305Z,5.97
2023-04-15T22:58:15.217Z,7.00
2023-04-15T23:00:42.387Z,4.60
2023-04-15T23:03:09.612Z,4.97
2023-04-15T23:05:37.198Z,5.75
2023-04-15T23:08:04.221Z,5.53
2023-04-15T23:10:31.261Z,5.47
2023-04-15T23:12:58.305Z,6.25
2023-04-15T23:15:37.366Z,4.12
2023-04-15T23:18:04.467Z,4.30
2023-04-15T23:20:31.967Z,5.03
2023-04-15T23:22:59.005Z,3.03
2023-04-15T23:25:26.370Z,4.47
2023-04-15T23:27:53.451Z,4.35
2023-04-15T23:30:20.677Z,5.55
2023-04-15T23:32:47.732Z,10.00
2023-04-15T23:35:15.016Z,6.70
2023-04-15T23:37:42.042Z,6.28
2023-04-15T23:40:09.543Z,3.85
2023-04-15T23:42:36.565Z,6.72
2023-04-15T23:45:03.631Z,4.90
2023-04-15T23:47:30.696Z,9.50
2023-04-15T23:49:57.813Z,8.30
2023-04-15T23:52:24.977Z,10.38
2023-04-15T23:54:52.065Z,5.07
2023-04-15T23:57:19.187Z,3.47
2023-04-15T23:59:46.479Z,4.43
